Terminal Aerodrome Forecast
Issued by NWS Twin Cities, MN

Home | Current Version | Previous Version | Text Only | Print | Product List | Glossary Off
Versions: 1 2 3 4 5 6 7 8 9 10 11 12 13 14 15 16 17 18

044
FTUS43 KMPX 232100 AAA
TAFEAU
TAF AMD
KEAU 232100Z 2321/2418 15011KT P6SM OVC040
     FM232200 16011KT P6SM VCSH OVC025
     FM240300 16007KT 6SM -SHRA OVC010
     FM240700 VRB03KT 3SM -SHRA OVC007
     FM241000 00000KT 2SM -SHRA OVC003
     FM241200 VRB03KT 2SM RA OVC003
     FM241700 03006KT 3SM RA OVC010=

USA.gov is the U.S. government's official web portal to all federal, state and local government web resources and services.